createdAt,value
2017-05-31T00:01:38.931Z,101021
2017-05-31T00:04:08.252Z,101028
2017-05-31T00:06:37.671Z,101030
2017-05-31T00:09:08.059Z,101031
2017-05-31T00:11:37.352Z,101034
2017-05-31T00:14:07.256Z,101040
2017-05-31T00:16:36.587Z,101034
2017-05-31T00:19:05.861Z,101032
2017-05-31T00:21:35.100Z,101039
2017-05-31T00:24:04.499Z,101041
2017-05-31T00:26:33.738Z,101046
2017-05-31T00:29:02.934Z,101046
2017-05-31T00:31:32.132Z,101050
2017-05-31T00:34:01.334Z,101063
2017-05-31T00:36:30.951Z,101052
2017-05-31T00:39:00.160Z,101061
2017-05-31T00:41:29.366Z,101048
2017-05-31T00:43:58.562Z,101066
2017-05-31T00:46:27.752Z,101058
2017-05-31T00:48:57.076Z,101052
2017-05-31T00:51:26.432Z,101053
2017-05-31T00:53:55.670Z,101057
2017-05-31T00:56:25.030Z,101067
2017-05-31T00:58:54.424Z,101069
2017-05-31T01:01:23.983Z,101074
2017-05-31T01:03:53.249Z,101085
2017-05-31T01:06:22.472Z,101083
2017-05-31T01:08:51.705Z,101089
2017-05-31T01:11:20.906Z,101081
2017-05-31T01:13:50.279Z,101087
2017-05-31T01:16:19.547Z,101090
2017-05-31T01:18:48.754Z,101082
2017-05-31T01:21:17.958Z,101096
2017-05-31T01:23:47.154Z,101085
2017-05-31T01:26:16.788Z,101084
2017-05-31T01:28:46.503Z,101092
2017-05-31T01:31:15.802Z,101082
2017-05-31T01:33:45.008Z,101079
2017-05-31T01:36:14.273Z,101087
2017-05-31T01:38:43.712Z,101086
2017-05-31T01:41:13.200Z,101082
2017-05-31T01:43:42.444Z,101079
2017-05-31T01:46:11.858Z,101083
2017-05-31T01:48:41.322Z,101079
2017-05-31T01:51:11.035Z,101085
2017-05-31T01:53:40.255Z,101075
2017-05-31T01:56:09.490Z,101083
2017-05-31T01:58:38.772Z,101080
2017-05-31T02:01:07.982Z,101088
2017-05-31T02:03:37.216Z,101081
2017-05-31T02:06:06.446Z,101088
2017-05-31T02:08:35.667Z,101086
2017-05-31T02:11:05.011Z,101091
2017-05-31T02:13:34.329Z,101095
2017-05-31T02:16:04.128Z,101079
2017-05-31T02:18:33.351Z,101089
2017-05-31T02:21:02.906Z,101089
2017-05-31T02:23:34.483Z,101080
2017-05-31T02:26:03.688Z,101079
2017-05-31T02:28:36.165Z,101078
2017-05-31T02:31:05.587Z,101091
2017-05-31T02:33:34.900Z,101080
2017-05-31T02:36:04.480Z,101092
2017-05-31T02:38:35.766Z,101085
2017-05-31T02:41:05.845Z,101086
2017-05-31T02:43:35.221Z,101086
2017-05-31T02:46:04.633Z,101077
2017-05-31T02:48:33.828Z,101067
2017-05-31T02:51:03.118Z,101057
2017-05-31T02:53:32.324Z,101056
2017-05-31T02:56:01.524Z,101048
2017-05-31T02:58:30.939Z,101053
2017-05-31T03:01:00.420Z,101060
2017-05-31T03:03:29.633Z,101070
2017-05-31T03:05:59.160Z,101069
2017-05-31T03:08:28.364Z,101074
2017-05-31T03:10:57.728Z,101079
2017-05-31T03:13:26.997Z,101089
2017-05-31T03:15:56.180Z,101087
2017-05-31T03:18:25.575Z,101096
2017-05-31T03:20:54.907Z,101094
2017-05-31T03:23:24.083Z,101101
2017-05-31T03:25:53.290Z,101111
2017-05-31T03:28:22.464Z,101099
2017-05-31T03:30:51.956Z,101118
2017-05-31T03:33:21.160Z,101110
2017-05-31T03:35:50.372Z,101119
2017-05-31T03:38:19.589Z,101105
2017-05-31T03:40:48.776Z,101111
2017-05-31T03:43:18.016Z,101109
2017-05-31T03:45:47.206Z,101111
2017-05-31T03:48:16.796Z,101105
2017-05-31T03:50:46.481Z,101108
2017-05-31T03:53:15.704Z,101113
2017-05-31T03:55:44.909Z,101108
2017-05-31T03:58:14.149Z,101095
2017-05-31T04:00:43.373Z,101113
2017-05-31T04:03:12.666Z,101127
2017-05-31T04:05:42.016Z,101123
2017-05-31T04:08:11.282Z,101128
2017-05-31T04:10:40.778Z,101136
2017-05-31T04:13:09.973Z,101129
2017-05-31T04:15:39.184Z,101124
2017-05-31T04:18:08.469Z,101139
2017-05-31T04:20:37.729Z,101141
2017-05-31T04:23:07.001Z,101139
2017-05-31T04:25:36.274Z,101148
2017-05-31T04:28:05.651Z,101132
2017-05-31T04:30:34.875Z,101142
2017-05-31T04:33:04.408Z,101147
2017-05-31T04:35:33.641Z,101149
2017-05-31T04:38:03.044Z,101151
2017-05-31T04:40:32.350Z,101146
2017-05-31T04:43:01.603Z,101162
2017-05-31T04:45:30.793Z,101164
2017-05-31T04:48:00.375Z,101163
2017-05-31T04:50:29.578Z,101162
2017-05-31T04:52:58.780Z,101160
2017-05-31T04:55:27.997Z,101173
2017-05-31T04:57:57.255Z,101175
2017-05-31T05:00:26.980Z,101172
2017-05-31T05:02:56.477Z,101182
2017-05-31T05:05:25.728Z,101064
2017-05-31T05:07:54.949Z,101181
2017-05-31T05:10:24.190Z,101186
2017-05-31T05:12:53.700Z,101187
2017-05-31T05:15:23.004Z,101196
2017-05-31T05:17:52.360Z,101194
2017-05-31T05:20:21.566Z,101193
2017-05-31T05:22:52.131Z,101193
2017-05-31T05:25:21.510Z,101196
2017-05-31T05:27:50.697Z,101196
2017-05-31T05:30:20.533Z,101198
2017-05-31T05:32:50.171Z,101200
2017-05-31T05:35:19.376Z,101208
2017-05-31T05:37:49.847Z,101214
2017-05-31T05:40:19.064Z,101221
2017-05-31T05:42:48.952Z,101226
2017-05-31T05:45:18.260Z,101233
2017-05-31T05:47:47.452Z,101230
2017-05-31T05:50:16.688Z,101239
2017-05-31T05:52:45.956Z,101236
2017-05-31T05:55:15.144Z,101244
2017-05-31T05:57:44.760Z,101240
2017-05-31T06:00:14.006Z,101245
2017-05-31T06:02:43.231Z,101245
2017-05-31T06:05:12.420Z,101248
2017-05-31T06:07:41.612Z,101254
2017-05-31T06:10:10.828Z,101262
2017-05-31T06:12:40.040Z,101257
2017-05-31T06:15:09.256Z,101258
2017-05-31T06:17:38.472Z,101256
2017-05-31T06:20:07.724Z,101265
2017-05-31T06:22:36.952Z,101276
2017-05-31T06:25:06.181Z,101272
2017-05-31T06:27:35.384Z,101273
2017-05-31T06:30:04.724Z,101274
2017-05-31T06:32:33.920Z,101280
2017-05-31T06:35:03.117Z,101279
2017-05-31T06:37:32.301Z,101294
2017-05-31T06:40:01.493Z,101286
2017-05-31T06:42:30.706Z,101296
2017-05-31T06:45:11.588Z,101299
2017-05-31T06:47:41.052Z,101303
2017-05-31T06:50:10.334Z,101298
2017-05-31T06:52:39.665Z,101300
2017-05-31T06:55:16.264Z,101294
2017-05-31T06:57:48.896Z,101308
2017-05-31T07:00:21.104Z,101308
2017-05-31T07:02:51.037Z,101309
2017-05-31T07:05:20.280Z,101316
2017-05-31T07:07:50.219Z,101309
2017-05-31T07:10:19.552Z,101317
2017-05-31T07:12:48.745Z,101339
2017-05-31T07:15:18.508Z,101333
2017-05-31T07:17:47.726Z,101342
2017-05-31T07:20:16.921Z,101349
2017-05-31T07:22:46.121Z,101348
2017-05-31T07:25:15.547Z,101357
2017-05-31T07:27:45.242Z,101361
2017-05-31T07:30:14.923Z,101344
2017-05-31T07:32:44.088Z,101362
2017-05-31T07:35:13.354Z,101356
2017-05-31T07:37:42.549Z,101383
2017-05-31T07:40:11.801Z,101390
2017-05-31T07:42:41.040Z,101382
2017-05-31T07:45:10.308Z,101390
2017-05-31T07:47:39.870Z,101398
2017-05-31T07:50:09.177Z,101397
2017-05-31T07:52:38.434Z,101407
2017-05-31T07:55:07.744Z,101403
2017-05-31T07:57:37.051Z,101401
2017-05-31T08:00:06.374Z,101408
2017-05-31T08:02:35.704Z,101413
2017-05-31T08:05:04.956Z,101404
2017-05-31T08:07:34.135Z,101404
2017-05-31T08:10:03.567Z,101409
2017-05-31T08:12:34.236Z,101414
2017-05-31T08:15:03.458Z,101417
2017-05-31T08:17:32.669Z,101420
2017-05-31T08:20:02.660Z,101431
2017-05-31T08:22:32.032Z,101412
2017-05-31T08:25:01.699Z,101430
2017-05-31T08:27:31.241Z,101425
2017-05-31T08:30:02.540Z,101429
2017-05-31T08:32:32.104Z,101415
2017-05-31T08:35:01.840Z,101448
2017-05-31T08:37:31.066Z,101437
2017-05-31T08:40:00.344Z,101434
2017-05-31T08:42:29.637Z,101444
2017-05-31T08:45:13.816Z,101439
2017-05-31T08:47:55.151Z,101452
2017-05-31T08:50:24.361Z,101444
2017-05-31T08:52:53.630Z,101456
2017-05-31T08:55:25.187Z,101457
2017-05-31T08:57:54.536Z,101470
2017-05-31T09:00:24.493Z,101461
2017-05-31T09:02:57.401Z,101452
2017-05-31T09:05:26.647Z,101476
2017-05-31T09:07:55.891Z,101483
2017-05-31T09:10:25.310Z,101488
2017-05-31T09:12:54.504Z,101466
2017-05-31T09:15:23.724Z,101487
2017-05-31T09:17:52.933Z,101479
2017-05-31T09:20:22.721Z,101484
2017-05-31T09:22:52.438Z,101495
2017-05-31T09:25:21.687Z,101504
2017-05-31T09:27:51.037Z,101496
2017-05-31T09:30:20.307Z,101495
2017-05-31T09:32:49.573Z,101509
2017-05-31T09:35:19.116Z,101501
2017-05-31T09:37:48.384Z,101508
2017-05-31T09:40:17.746Z,101515
2017-05-31T09:42:46.999Z,101513
2017-05-31T09:45:16.632Z,101509
2017-05-31T09:47:46.474Z,101518
2017-05-31T09:50:15.807Z,101527
2017-05-31T09:52:45.164Z,101533
2017-05-31T09:55:14.505Z,101522
2017-05-31T09:57:44.261Z,101546
2017-05-31T10:00:13.453Z,101541
2017-05-31T10:02:42.646Z,101535
2017-05-31T10:05:11.856Z,101536
2017-05-31T10:07:41.342Z,101546
2017-05-31T10:10:10.588Z,101548
2017-05-31T10:12:40.099Z,101544
2017-05-31T10:15:09.829Z,101539
2017-05-31T10:17:39.044Z,101544
2017-05-31T10:20:08.303Z,101559
2017-05-31T10:22:37.666Z,101547
2017-05-31T10:25:07.424Z,101545
2017-05-31T10:27:36.727Z,101564
2017-05-31T10:30:05.950Z,101554
2017-05-31T10:32:35.176Z,101557
2017-05-31T10:35:04.832Z,101560
2017-05-31T10:37:34.054Z,101561
2017-05-31T10:40:03.328Z,101566
2017-05-31T10:42:32.824Z,101564
2017-05-31T10:45:02.024Z,101581
2017-05-31T10:47:31.307Z,101572
2017-05-31T10:50:00.543Z,101598
2017-05-31T10:52:29.764Z,101566
2017-05-31T10:54:59.264Z,101571
2017-05-31T10:57:28.508Z,101591
2017-05-31T10:59:57.749Z,101593
2017-05-31T11:02:27.528Z,101579
2017-05-31T11:04:57.156Z,101579
2017-05-31T11:07:26.397Z,101585
2017-05-31T11:09:56.664Z,101588
2017-05-31T11:12:26.027Z,101601
2017-05-31T11:14:55.701Z,101585
2017-05-31T11:17:24.986Z,101613
2017-05-31T11:19:54.199Z,101609
2017-05-31T11:22:23.501Z,101595
2017-05-31T11:24:52.730Z,101608
2017-05-31T11:27:21.931Z,101613
2017-05-31T11:29:51.246Z,101609
2017-05-31T11:32:20.952Z,101600
2017-05-31T11:34:50.869Z,101619
2017-05-31T11:37:20.420Z,101604
2017-05-31T11:39:50.044Z,101613
2017-05-31T11:42:19.510Z,101626
2017-05-31T11:44:48.720Z,101615
2017-05-31T11:47:19.467Z,101627
2017-05-31T11:49:48.832Z,101624
2017-05-31T11:52:18.044Z,101633
2017-05-31T11:54:47.598Z,101638
2017-05-31T11:57:17.081Z,101633
2017-05-31T11:59:46.412Z,101646
2017-05-31T12:02:15.624Z,101646
2017-05-31T12:04:45.191Z,101646
2017-05-31T12:07:14.393Z,101637
2017-05-31T12:09:43.614Z,101636
2017-05-31T12:12:12.892Z,101637
2017-05-31T12:14:42.091Z,101651
2017-05-31T12:17:12.093Z,101657
2017-05-31T12:19:41.296Z,101673
2017-05-31T12:22:10.524Z,101679
2017-05-31T12:24:40.004Z,101662
2017-05-31T12:27:09.209Z,101672
2017-05-31T12:29:38.407Z,101662
2017-05-31T12:32:07.756Z,101662
2017-05-31T12:34:37.047Z,101663
2017-05-31T12:37:06.261Z,101666
2017-05-31T12:39:35.488Z,101681
2017-05-31T12:42:04.770Z,101663
2017-05-31T12:44:34.831Z,101675
2017-05-31T12:47:05.496Z,101680
2017-05-31T13:02:04.336Z,101680
2017-05-31T13:04:33.532Z,101673
2017-05-31T13:07:02.736Z,101682
2017-05-31T13:09:31.957Z,101664
2017-05-31T13:12:01.181Z,101661
2017-05-31T13:14:30.401Z,101661
2017-05-31T13:16:59.715Z,101660
2017-05-31T13:19:30.537Z,101649
2017-05-31T13:21:59.726Z,101661
2017-05-31T13:24:29.033Z,101662
2017-05-31T13:26:59.829Z,101662
2017-05-31T13:29:29.018Z,101669
2017-05-31T13:31:58.321Z,101653
2017-05-31T13:34:27.677Z,101644
2017-05-31T13:36:57.195Z,101666
2017-05-31T13:39:26.409Z,101669
2017-05-31T13:41:57.357Z,101665
2017-05-31T13:44:26.888Z,101665
2017-05-31T13:46:56.574Z,101671
2017-05-31T13:49:25.900Z,101672
2017-05-31T13:51:55.204Z,101668
2017-05-31T13:54:24.410Z,101665
2017-05-31T13:56:53.789Z,101658
2017-05-31T13:59:23.095Z,101671
2017-05-31T14:01:52.296Z,101672
2017-05-31T14:04:21.960Z,101683
2017-05-31T14:06:51.218Z,101670
2017-05-31T14:09:20.502Z,101660
2017-05-31T14:11:49.722Z,101668
2017-05-31T14:14:19.194Z,101454
2017-05-31T14:16:48.664Z,101654
2017-05-31T14:19:17.963Z,101656
2017-05-31T14:21:47.377Z,101653
2017-05-31T14:24:16.717Z,101647
2017-05-31T14:26:46.430Z,101653
2017-05-31T14:29:15.747Z,101658
2017-05-31T14:31:44.970Z,101672
2017-05-31T14:34:14.204Z,101662
2017-05-31T14:36:43.395Z,101659
2017-05-31T14:39:12.739Z,101663
2017-05-31T14:41:41.984Z,101662
2017-05-31T14:44:11.336Z,101675
2017-05-31T14:46:40.689Z,101668
2017-05-31T14:49:10.337Z,101664
2017-05-31T14:51:39.553Z,101605
2017-05-31T14:54:08.738Z,101658
2017-05-31T14:56:37.962Z,101667
2017-05-31T14:59:07.167Z,101665
2017-05-31T15:01:36.465Z,101675
2017-05-31T15:04:06.173Z,101663
2017-05-31T15:06:35.389Z,101675
2017-05-31T15:09:05.261Z,101673
2017-05-31T15:11:35.073Z,101680
2017-05-31T15:14:04.299Z,101672
2017-05-31T15:16:33.677Z,101679
2017-05-31T15:19:03.122Z,101677
2017-05-31T15:21:32.613Z,101665
2017-05-31T15:24:02.447Z,101669
2017-05-31T15:26:32.149Z,101665
2017-05-31T15:29:02.491Z,101673
2017-05-31T15:31:31.410Z,101672
2017-05-31T15:34:00.698Z,101665
2017-05-31T15:36:30.386Z,101675
2017-05-31T15:38:59.862Z,101675
2017-05-31T15:41:29.162Z,101670
2017-05-31T15:43:58.888Z,101657
2017-05-31T15:46:28.189Z,101668
2017-05-31T15:48:57.588Z,101661
2017-05-31T15:51:27.049Z,101664
2017-05-31T15:53:57.869Z,101676
2017-05-31T15:56:27.305Z,101669
2017-05-31T15:58:56.558Z,101679
2017-05-31T16:01:25.774Z,101681
2017-05-31T16:03:55.125Z,101673
2017-05-31T16:06:24.474Z,101682
2017-05-31T16:08:53.920Z,101664
2017-05-31T16:11:23.156Z,101681
2017-05-31T16:13:52.548Z,101666
2017-05-31T16:16:21.850Z,101677
2017-05-31T16:18:51.773Z,101673
2017-05-31T16:21:21.053Z,101672
2017-05-31T16:23:57.657Z,101669
2017-05-31T16:26:28.063Z,101676
2017-05-31T16:28:57.605Z,101678
2017-05-31T16:31:27.064Z,101682
2017-05-31T16:33:56.644Z,101674
2017-05-31T16:36:26.223Z,101670
2017-05-31T16:38:55.675Z,101671
2017-05-31T16:41:25.018Z,101673
2017-05-31T16:43:55.333Z,101678
2017-05-31T16:46:25.237Z,101670
2017-05-31T16:48:54.931Z,101676
2017-05-31T16:51:24.240Z,101669
2017-05-31T16:53:53.531Z,101663
2017-05-31T16:56:23.011Z,101673
2017-05-31T16:58:52.405Z,101672
2017-05-31T17:01:22.150Z,101674
2017-05-31T17:03:53.226Z,101673
2017-05-31T17:06:22.781Z,101673
2017-05-31T17:08:52.012Z,101680
2017-05-31T17:11:21.304Z,101680
2017-05-31T17:13:50.639Z,101678
2017-05-31T17:16:19.849Z,101673
2017-05-31T17:18:49.472Z,101673
2017-05-31T17:21:18.700Z,101667
2017-05-31T17:23:48.143Z,101670
2017-05-31T17:26:17.625Z,101677
2017-05-31T17:28:47.474Z,101679
2017-05-31T17:31:17.184Z,101677
2017-05-31T17:33:46.534Z,101686
2017-05-31T17:36:15.924Z,101684
2017-05-31T17:38:45.908Z,101676
2017-05-31T17:41:15.221Z,101663
2017-05-31T17:43:44.490Z,101678
2017-05-31T17:46:14.070Z,101671
2017-05-31T17:48:43.435Z,101672
2017-05-31T17:51:12.858Z,101672
2017-05-31T17:53:42.330Z,101675
2017-05-31T17:56:11.814Z,101675
2017-05-31T17:58:41.125Z,101676
2017-05-31T18:01:10.434Z,101675
2017-05-31T18:03:41.000Z,101675
2017-05-31T18:06:10.259Z,101671
2017-05-31T18:08:40.201Z,101668
2017-05-31T18:11:09.418Z,101662
2017-05-31T18:13:39.426Z,101674
2017-05-31T18:16:08.774Z,101672
2017-05-31T18:18:38.017Z,101674
2017-05-31T18:21:07.657Z,101664
2017-05-31T18:23:37.124Z,101671
2017-05-31T18:26:06.406Z,101674
2017-05-31T18:28:36.113Z,101671
2017-05-31T18:31:05.638Z,101662
2017-05-31T18:33:35.355Z,101666
2017-05-31T18:36:04.647Z,101662
2017-05-31T18:38:34.337Z,101671
2017-05-31T18:41:03.890Z,101663
2017-05-31T18:43:33.429Z,101661
2017-05-31T18:46:02.662Z,101664
2017-05-31T18:48:31.969Z,101669
2017-05-31T18:51:01.174Z,101654
2017-05-31T18:53:30.585Z,101671
2017-05-31T18:55:59.866Z,101663
2017-05-31T18:58:29.069Z,101666
2017-05-31T19:00:58.337Z,101673
2017-05-31T19:03:28.410Z,101667
2017-05-31T19:05:58.412Z,101663
2017-05-31T19:08:27.724Z,101671
2017-05-31T19:10:56.996Z,101659
2017-05-31T19:13:26.366Z,101665
2017-05-31T19:15:56.018Z,101667
2017-05-31T19:18:25.205Z,101670
2017-05-31T19:20:54.602Z,101671
2017-05-31T19:23:24.140Z,101665
2017-05-31T19:25:53.862Z,101670
2017-05-31T19:28:23.113Z,101671
2017-05-31T19:30:52.372Z,101669
2017-05-31T19:33:21.789Z,101678
2017-05-31T19:35:51.050Z,101664
2017-05-31T19:38:20.733Z,101673
2017-05-31T19:40:50.269Z,101665
2017-05-31T19:43:20.099Z,101678
2017-05-31T19:45:49.498Z,101678
2017-05-31T19:48:18.901Z,101674
2017-05-31T19:50:48.365Z,101677
2017-05-31T19:53:17.634Z,101682
2017-05-31T19:55:46.914Z,101677
2017-05-31T19:58:16.211Z,101683
2017-05-31T20:00:45.516Z,101679
2017-05-31T20:03:14.794Z,101680
2017-05-31T20:05:44.325Z,101680
2017-05-31T20:08:13.831Z,101680
2017-05-31T20:10:43.315Z,101691
2017-05-31T20:13:12.805Z,101678
2017-05-31T20:15:42.073Z,101684
2017-05-31T20:18:11.293Z,101620
2017-05-31T20:20:41.568Z,101690
2017-05-31T20:23:10.914Z,101686
2017-05-31T20:25:42.177Z,101694
2017-05-31T20:28:11.443Z,101705
2017-05-31T20:30:41.177Z,101690
2017-05-31T20:33:10.425Z,101697
2017-05-31T20:35:40.414Z,101710
2017-05-31T20:38:09.946Z,101710
2017-05-31T20:40:39.197Z,101705
2017-05-31T20:43:08.535Z,101707
2017-05-31T20:45:38.045Z,101684
2017-05-31T20:48:07.551Z,101717
2017-05-31T20:50:36.842Z,101716
2017-05-31T20:53:06.060Z,101709
2017-05-31T20:55:35.407Z,101715
2017-05-31T20:58:04.814Z,101703
2017-05-31T21:00:34.289Z,101716
2017-05-31T21:03:03.539Z,101715
2017-05-31T21:05:32.877Z,101708
2017-05-31T21:08:02.398Z,101708
2017-05-31T21:10:36.006Z,101718
2017-05-31T21:13:05.329Z,101718
2017-05-31T21:15:34.666Z,101713
2017-05-31T21:18:04.141Z,101709
2017-05-31T21:20:33.749Z,101701
2017-05-31T21:23:02.989Z,101710
2017-05-31T21:25:32.962Z,101704
2017-05-31T21:28:02.325Z,101700
2017-05-31T21:30:31.625Z,101444
2017-05-31T21:33:01.400Z,101706
2017-05-31T21:35:30.613Z,101704
2017-05-31T21:38:00.364Z,101707
2017-05-31T21:40:29.651Z,101708
2017-05-31T21:42:59.001Z,101712
2017-05-31T21:45:28.253Z,101707
2017-05-31T21:47:57.608Z,101707
2017-05-31T21:50:27.154Z,101706
2017-05-31T21:52:56.976Z,101709
2017-05-31T21:55:26.345Z,101703
2017-05-31T21:57:55.771Z,101710
2017-05-31T22:00:25.091Z,101708
2017-05-31T22:02:54.357Z,101710
2017-05-31T22:05:23.753Z,101702
2017-05-31T22:07:52.973Z,101705
2017-05-31T22:10:22.304Z,101713
2017-05-31T22:12:51.546Z,101713
2017-05-31T22:15:21.095Z,101709
2017-05-31T22:17:50.800Z,101702
2017-05-31T22:20:20.024Z,101701
2017-05-31T22:22:49.460Z,101706
2017-05-31T22:25:18.682Z,101701
2017-05-31T22:27:47.993Z,101707
2017-05-31T22:30:17.338Z,101703
2017-05-31T22:32:46.533Z,101705
2017-05-31T22:35:15.753Z,101709
2017-05-31T22:37:45.040Z,101708
2017-05-31T22:40:14.546Z,101700
2017-05-31T22:42:44.269Z,101701
2017-05-31T22:45:13.502Z,101704
2017-05-31T22:47:42.909Z,101699
2017-05-31T22:50:12.128Z,101706
2017-05-31T22:52:41.381Z,101708
2017-05-31T22:55:10.901Z,101707
2017-05-31T22:57:40.117Z,101698
2017-05-31T23:00:09.366Z,101700
2017-05-31T23:02:38.765Z,101703
2017-05-31T23:05:08.566Z,101705
2017-05-31T23:07:38.084Z,101706
2017-05-31T23:10:08.606Z,101703
2017-05-31T23:12:38.679Z,101709
2017-05-31T23:15:08.226Z,101698
2017-05-31T23:17:37.753Z,101697
2017-05-31T23:20:06.993Z,101703
2017-05-31T23:22:36.226Z,101710
2017-05-31T23:25:05.437Z,101709
2017-05-31T23:27:34.671Z,101704
2017-05-31T23:30:03.927Z,101703
2017-05-31T23:32:33.763Z,101711
2017-05-31T23:35:02.989Z,101710
2017-05-31T23:37:32.362Z,101707
2017-05-31T23:40:01.806Z,101711
2017-05-31T23:42:31.105Z,101709
2017-05-31T23:45:00.376Z,101702
2017-05-31T23:47:29.848Z,101705
2017-05-31T23:49:59.292Z,101707
2017-05-31T23:52:28.575Z,101706
2017-05-31T23:54:58.470Z,101703
2017-05-31T23:57:27.701Z,101699
2017-05-31T23:59:57.051Z,101701
